Time;durP1;ratioP1;P1;durP2;ratioP2;P2;SDS_P1;SDS_P2;PMS_P1;PMS_P2;Temp;Humidity;BMP_temperature;BMP_pressure;BME280_temperature;BME280_humidity;BME280_pressure;Samples;Min_cycle;Max_cycle;Signal;HPM_P1;HPM_P2
2022/04/03 00:00:56;;;;;;;17.40;7.13;;;0.30;99.90;;;;;;5007983;28;20036;-67
2022/04/03 00:03:22;;;;;;;13.80;7.00;;;0.20;99.90;;;;;;5008427;28;20061;-67
2022/04/03 00:05:47;;;;;;;16.27;6.88;;;0.20;99.90;;;;;;5009096;28;20053;-65
2022/04/03 00:08:13;;;;;;;15.57;6.43;;;0.30;99.90;;;;;;5009268;28;20142;-67
2022/04/03 00:10:42;;;;;;;16.20;7.22;;;0.20;99.90;;;;;;5007820;28;20166;-67
2022/04/03 00:13:08;;;;;;;15.73;6.90;;;0.20;99.90;;;;;;5008174;28;20528;-66
2022/04/03 00:15:38;;;;;;;15.80;7.05;;;0.20;99.90;;;;;;5007203;28;20109;-66
2022/04/03 00:18:04;;;;;;;19.55;7.30;;;0.20;99.90;;;;;;5000197;28;20484;-65
2022/04/03 00:20:30;;;;;;;14.00;6.85;;;0.20;99.90;;;;;;5008959;28;20083;-67
2022/04/03 00:22:55;;;;;;;16.90;6.75;;;0.20;99.90;;;;;;5009821;28;20033;-67
2022/04/03 00:25:22;;;;;;;16.40;7.13;;;0.20;99.90;;;;;;5009045;28;20049;-68
2022/04/03 00:27:47;;;;;;;14.40;6.78;;;0.10;99.90;;;;;;5010062;28;20022;-67
2022/04/03 00:30:14;;;;;;;13.45;6.60;;;0.10;99.90;;;;;;5008996;28;20036;-67
2022/04/03 00:32:40;;;;;;;16.05;6.50;;;0.10;99.90;;;;;;5008013;28;20331;-67
2022/04/03 00:35:06;;;;;;;18.88;7.22;;;0.10;99.90;;;;;;5010796;28;20092;-67
2022/04/03 00:37:33;;;;;;;19.17;7.35;;;0.10;99.90;;;;;;5010279;28;20054;-66
2022/04/03 00:39:59;;;;;;;17.00;7.38;;;0.20;99.90;;;;;;5008155;28;20473;-67
2022/04/03 00:42:25;;;;;;;15.27;6.50;;;0.10;99.90;;;;;;5006923;28;20030;-68
2022/04/03 00:44:51;;;;;;;19.33;7.57;;;0.10;99.90;;;;;;5009373;28;20030;-67
2022/04/03 00:47:18;;;;;;;15.77;7.43;;;0.10;99.90;;;;;;5007890;28;20037;-67
2022/04/03 00:49:44;;;;;;;15.48;6.90;;;0.00;99.90;;;;;;5011562;28;20911;-67
2022/04/03 00:52:10;;;;;;;16.60;7.32;;;0.10;99.90;;;;;;5008017;28;20058;-67
2022/04/03 00:54:36;;;;;;;17.00;7.55;;;0.00;99.90;;;;;;5008408;28;20520;-66
2022/04/03 00:57:09;;;;;;;15.00;6.75;;;0.00;99.90;;;;;;5008732;28;20034;-66
2022/04/03 00:59:35;;;;;;;21.52;6.65;;;-0.10;99.90;;;;;;5006588;28;20038;-67
2022/04/03 01:02:02;;;;;;;18.58;6.95;;;-0.20;99.90;;;;;;5007458;28;20026;-67
2022/04/03 01:04:28;;;;;;;17.20;7.82;;;-0.30;99.90;;;;;;5007688;28;20100;-67
2022/04/03 01:06:56;;;;;;;16.73;6.35;;;-0.30;99.90;;;;;;5006223;28;20025;-66
2022/04/03 01:09:22;;;;;;;16.65;7.20;;;-0.40;99.90;;;;;;5012173;28;20038;-67
2022/04/03 01:11:48;;;;;;;15.93;6.85;;;-0.40;99.90;;;;;;5008629;28;20033;-67
2022/04/03 01:14:15;;;;;;;19.00;7.25;;;-0.40;99.90;;;;;;5006072;28;20125;-67
2022/04/03 01:16:41;;;;;;;20.83;6.85;;;-0.40;99.90;;;;;;5006606;28;20038;-67
2022/04/03 01:19:07;;;;;;;16.63;7.22;;;-0.40;99.90;;;;;;5008444;28;20038;-67
2022/04/03 01:21:33;;;;;;;17.90;7.30;;;-0.40;99.90;;;;;;5006432;28;20493;-66
2022/04/03 01:23:59;;;;;;;15.93;6.93;;;-0.30;99.90;;;;;;5007948;28;20153;-67
2022/04/03 01:26:24;;;;;;;23.15;7.70;;;-0.30;99.90;;;;;;5007753;28;20030;-68
2022/04/03 01:28:51;;;;;;;15.70;6.78;;;-0.30;99.90;;;;;;5013362;28;20018;-67
2022/04/03 01:31:18;;;;;;;18.52;7.25;;;-0.40;99.90;;;;;;5006385;28;20113;-66
2022/04/03 01:33:43;;;;;;;17.45;7.13;;;-0.40;99.90;;;;;;5006936;28;20692;-67
2022/04/03 01:36:09;;;;;;;17.38;6.85;;;-0.40;99.90;;;;;;5007826;28;20109;-67
2022/04/03 01:38:35;;;;;;;18.10;7.55;;;-0.40;99.90;;;;;;5006807;28;20033;-67
2022/04/03 01:41:01;;;;;;;17.40;7.25;;;-0.50;99.90;;;;;;5008381;28;20062;-66
2022/04/03 01:43:27;;;;;;;17.75;7.32;;;-0.50;99.90;;;;;;5008029;28;20117;-67
2022/04/03 01:45:52;;;;;;;20.77;7.18;;;-0.50;99.90;;;;;;5006605;28;20382;-66
2022/04/03 01:48:18;;;;;;;17.20;7.32;;;-0.60;99.90;;;;;;5012320;28;20472;-66
2022/04/03 01:50:45;;;;;;;17.02;7.70;;;-0.60;99.90;;;;;;5010742;28;20552;-66
2022/04/03 01:53:11;;;;;;;22.02;7.55;;;-0.60;99.90;;;;;;5012984;28;20034;-66
2022/04/03 01:55:36;;;;;;;17.75;7.60;;;-0.60;99.90;;;;;;5011218;28;20041;-66
2022/04/03 01:58:08;;;;;;;18.45;7.72;;;-0.60;99.90;;;;;;5012374;28;20045;-66
2022/04/03 02:00:34;;;;;;;20.73;7.68;;;-0.50;99.90;;;;;;5010970;28;20757;-67
2022/04/03 02:03:00;;;;;;;19.15;7.32;;;-0.50;99.90;;;;;;5012000;28;20468;-66
2022/04/03 02:05:26;;;;;;;17.83;7.38;;;-0.50;99.90;;;;;;5010328;28;20132;-66
2022/04/03 02:07:51;;;;;;;20.08;7.45;;;-0.60;99.90;;;;;;5010256;28;20065;-66
2022/04/03 02:10:17;;;;;;;18.95;7.68;;;-0.60;99.90;;;;;;5011992;28;20481;-66
2022/04/03 02:12:43;;;;;;;17.00;7.45;;;-0.60;99.90;;;;;;5010632;28;20052;-66
2022/04/03 02:15:11;;;;;;;20.67;7.00;;;-0.60;99.90;;;;;;5011820;28;20037;-66
2022/04/03 02:17:37;;;;;;;17.80;7.03;;;-0.60;99.90;;;;;;5010057;28;20038;-67
2022/04/03 02:20:05;;;;;;;16.88;7.40;;;-0.60;99.90;;;;;;5010714;28;20054;-67
2022/04/03 02:22:30;;;;;;;18.50;7.53;;;-0.60;99.90;;;;;;5018289;28;20044;-68
2022/04/03 02:24:56;;;;;;;18.52;7.65;;;-0.60;99.90;;;;;;5011959;28;20536;-67
2022/04/03 02:27:22;;;;;;;16.65;7.25;;;-0.50;99.90;;;;;;5013002;28;20053;-67
2022/04/03 02:29:47;;;;;;;18.30;8.02;;;-0.50;99.90;;;;;;5012198;28;20026;-67
2022/04/03 02:32:13;;;;;;;21.75;8.07;;;-0.50;99.90;;;;;;5011257;28;20029;-67
2022/04/03 02:34:39;;;;;;;22.98;7.63;;;-0.50;99.90;;;;;;5014990;28;20050;-65
2022/04/03 02:37:05;;;;;;;22.52;7.97;;;-0.50;99.90;;;;;;5015389;28;20052;-66
2022/04/03 02:39:30;;;;;;;22.88;8.98;;;-0.50;99.90;;;;;;5009505;28;20362;-67
2022/04/03 02:41:56;;;;;;;17.20;7.30;;;-0.60;99.90;;;;;;5017153;28;20025;-67
2022/04/03 02:44:22;;;;;;;19.25;7.70;;;-0.50;99.90;;;;;;5009857;28;20046;-66
2022/04/03 02:46:48;;;;;;;19.85;7.80;;;-0.50;99.90;;;;;;5009357;28;20686;-67
2022/04/03 02:49:13;;;;;;;19.95;7.60;;;-0.40;99.90;;;;;;5009937;28;20030;-67
2022/04/03 02:51:39;;;;;;;19.30;7.60;;;-0.40;99.90;;;;;;5009526;28;20095;-65
2022/04/03 02:54:05;;;;;;;22.40;8.38;;;-0.30;99.90;;;;;;5010721;28;20072;-65
2022/04/03 02:56:31;;;;;;;21.83;7.53;;;-0.30;99.90;;;;;;5009937;28;20066;-66
2022/04/03 02:58:58;;;;;;;20.40;7.65;;;-0.30;99.90;;;;;;5010026;28;20444;-67
2022/04/03 03:01:24;;;;;;;23.42;8.55;;;-0.30;99.90;;;;;;5012190;28;20034;-67
2022/04/03 03:03:50;;;;;;;18.25;8.30;;;-0.30;99.90;;;;;;5009292;28;20034;-66
2022/04/03 03:06:16;;;;;;;20.98;8.02;;;-0.10;99.90;;;;;;5010650;28;20049;-67
2022/04/03 03:08:42;;;;;;;17.23;7.55;;;-0.20;99.90;;;;;;5009822;28;20042;-67
2022/04/03 03:11:08;;;;;;;23.25;8.70;;;-0.20;99.90;;;;;;5010328;28;20063;-67
2022/04/03 03:13:34;;;;;;;18.70;8.30;;;-0.20;99.90;;;;;;5009383;28;20082;-67
2022/04/03 03:16:00;;;;;;;21.55;8.07;;;-0.20;99.90;;;;;;5010625;28;20037;-67
2022/04/03 03:18:26;;;;;;;18.75;8.45;;;-0.30;99.90;;;;;;5011184;28;20038;-67
2022/04/03 03:20:52;;;;;;;19.63;7.70;;;-0.30;99.90;;;;;;5009114;28;20606;-67
2022/04/03 03:23:18;;;;;;;16.65;7.32;;;-0.40;99.90;;;;;;5010595;28;20049;-67
2022/04/03 03:25:45;;;;;;;21.10;7.72;;;-0.30;99.90;;;;;;5009013;28;20174;-67
2022/04/03 03:28:11;;;;;;;18.80;8.05;;;-0.30;99.90;;;;;;5010327;28;20026;-67
2022/04/03 03:30:37;;;;;;;18.25;8.18;;;-0.30;99.90;;;;;;5009176;28;20136;-67
2022/04/03 03:33:03;;;;;;;20.92;8.57;;;-0.20;99.90;;;;;;5007727;28;20711;-66
2022/04/03 03:35:29;;;;;;;21.48;8.50;;;-0.20;99.90;;;;;;5003935;28;20103;-67
2022/04/03 03:37:55;;;;;;;21.05;8.90;;;-0.20;99.90;;;;;;5009468;28;20105;-67
2022/04/03 03:40:20;;;;;;;17.13;7.82;;;-0.20;99.90;;;;;;5010031;28;20141;-67
2022/04/03 03:42:46;;;;;;;19.83;8.05;;;-0.20;99.90;;;;;;5009261;28;20037;-67
2022/04/03 03:45:14;;;;;;;21.88;8.85;;;-0.30;99.90;;;;;;5008508;28;20111;-67
2022/04/03 03:47:42;;;;;;;20.85;8.57;;;-0.30;99.90;;;;;;5009062;28;20029;-68
2022/04/03 03:50:08;;;;;;;22.58;9.15;;;-0.30;99.90;;;;;;5010605;28;20029;-66
2022/04/03 03:52:33;;;;;;;19.73;7.95;;;-0.30;99.90;;;;;;5011666;28;20033;-68
2022/04/03 03:54:59;;;;;;;21.58;8.07;;;-0.30;99.90;;;;;;5008261;28;20033;-67
2022/04/03 03:57:25;;;;;;;21.23;7.82;;;-0.30;99.90;;;;;;5009936;28;20026;-67
2022/04/03 03:59:52;;;;;;;20.42;8.38;;;-0.40;99.90;;;;;;5010927;28;20035;-67
2022/04/03 04:02:18;;;;;;;18.50;7.93;;;-0.40;99.90;;;;;;5009753;28;20108;-67
2022/04/03 04:04:44;;;;;;;20.25;8.05;;;-0.40;99.90;;;;;;5007405;28;20113;-68
2022/04/03 04:07:10;;;;;;;18.00;7.88;;;-0.40;99.90;;;;;;5018812;28;20459;-67
2022/04/03 04:09:36;;;;;;;21.05;7.80;;;-0.40;99.90;;;;;;5016589;28;20033;-68
2022/04/03 04:12:03;;;;;;;20.88;8.00;;;-0.40;99.90;;;;;;5012554;28;20075;-67
2022/04/03 04:14:29;;;;;;;21.08;8.23;;;-0.30;99.90;;;;;;5009641;28;20042;-67
2022/04/03 04:16:54;;;;;;;19.58;8.02;;;-0.30;99.90;;;;;;5007446;28;20660;-67
2022/04/03 04:19:20;;;;;;;20.85;7.35;;;-0.30;99.90;;;;;;5009209;28;20384;-67
2022/04/03 04:21:46;;;;;;;18.90;8.18;;;-0.30;99.90;;;;;;5005999;28;20025;-67
2022/04/03 04:24:14;;;;;;;20.63;8.40;;;-0.30;99.90;;;;;;5008593;28;20120;-66
2022/04/03 04:26:40;;;;;;;18.02;7.53;;;-0.30;99.90;;;;;;5010166;28;20052;-66
2022/04/03 04:29:06;;;;;;;22.85;8.13;;;-0.30;99.90;;;;;;5008960;28;20435;-68
2022/04/03 04:31:31;;;;;;;19.98;7.75;;;-0.30;99.90;;;;;;5013366;28;20069;-67
2022/04/03 04:33:58;;;;;;;20.55;7.10;;;-0.30;99.90;;;;;;5006197;28;20528;-67
2022/04/03 04:36:24;;;;;;;20.27;7.93;;;-0.40;99.90;;;;;;5009530;28;20045;-66
2022/04/03 04:38:50;;;;;;;18.83;7.35;;;-0.40;99.90;;;;;;5007990;28;20544;-66
2022/04/03 04:41:16;;;;;;;18.83;7.47;;;-0.50;99.90;;;;;;5009443;28;20810;-67
2022/04/03 04:43:42;;;;;;;17.63;7.30;;;-0.60;99.90;;;;;;5018252;28;20116;-67
2022/04/03 04:46:08;;;;;;;20.63;7.95;;;-0.50;99.90;;;;;;5011778;28;20041;-66
2022/04/03 04:48:34;;;;;;;21.67;7.22;;;-0.50;99.90;;;;;;5006092;28;20041;-66
2022/04/03 04:51:01;;;;;;;18.98;7.63;;;-0.50;99.90;;;;;;5007410;28;20076;-66
2022/04/03 04:53:27;;;;;;;20.05;7.90;;;-0.50;99.90;;;;;;5027560;28;20396;-66
2022/04/03 04:55:52;;;;;;;18.42;7.72;;;-0.50;99.90;;;;;;5007883;28;20049;-66
2022/04/03 04:58:18;;;;;;;19.92;7.55;;;-0.50;99.90;;;;;;5012575;28;20536;-66
2022/04/03 05:00:44;;;;;;;17.67;7.55;;;-0.60;99.90;;;;;;5009870;28;20638;-66
2022/04/03 05:03:09;;;;;;;18.98;7.45;;;-0.60;99.90;;;;;;5009383;28;20120;-66
2022/04/03 05:05:35;;;;;;;21.05;7.40;;;-0.60;99.90;;;;;;5008248;28;20400;-66
2022/04/03 05:08:01;;;;;;;16.55;7.65;;;-0.60;99.90;;;;;;5008165;28;20034;-66
2022/04/03 05:10:30;;;;;;;15.90;6.95;;;-0.60;99.90;;;;;;5008141;28;20065;-66
2022/04/03 05:12:57;;;;;;;20.42;7.82;;;-0.50;99.90;;;;;;4999762;28;20064;-67
2022/04/03 05:15:23;;;;;;;20.45;7.95;;;-0.50;99.90;;;;;;5006232;28;20084;-67
2022/04/03 05:17:49;;;;;;;19.85;8.35;;;-0.50;99.90;;;;;;5006955;28;20041;-67
2022/04/03 05:20:16;;;;;;;19.08;8.13;;;-0.50;99.90;;;;;;5005384;28;20025;-67
2022/04/03 05:22:43;;;;;;;20.27;8.32;;;-0.50;99.90;;;;;;5005951;28;20039;-67
2022/04/03 05:25:11;;;;;;;20.50;7.70;;;-0.40;99.90;;;;;;5010746;28;20033;-67
2022/04/03 05:27:37;;;;;;;20.67;8.35;;;-0.40;99.90;;;;;;5017713;28;20116;-67
2022/04/03 05:30:03;;;;;;;18.33;7.75;;;-0.30;99.90;;;;;;5011744;28;20088;-67
2022/04/03 05:32:31;;;;;;;18.88;7.53;;;-0.40;99.90;;;;;;5017800;28;20051;-66
2022/04/03 05:34:58;;;;;;;19.55;7.82;;;-0.40;99.90;;;;;;5010333;28;20053;-66
2022/04/03 05:37:24;;;;;;;17.33;7.25;;;-0.30;99.90;;;;;;5005450;28;20026;-67
2022/04/03 05:39:51;;;;;;;18.95;7.65;;;-0.20;99.90;;;;;;5005959;28;20029;-67
2022/04/03 05:42:20;;;;;;;21.52;8.13;;;-0.20;99.90;;;;;;5006085;28;20032;-67
2022/04/03 05:44:47;;;;;;;21.83;8.00;;;-0.20;99.90;;;;;;5006724;28;20484;-67
2022/04/03 05:47:13;;;;;;;20.52;7.88;;;-0.30;99.90;;;;;;5006932;28;20033;-67
2022/04/03 05:49:38;;;;;;;19.73;7.72;;;-0.30;99.90;;;;;;5022388;28;20057;-66
2022/04/03 05:52:04;;;;;;;21.20;7.32;;;-0.30;99.90;;;;;;5008200;28;20329;-67
2022/04/03 05:54:30;;;;;;;17.98;7.65;;;-0.30;99.90;;;;;;5009697;28;20076;-67
2022/04/03 05:56:56;;;;;;;18.23;7.90;;;-0.30;99.90;;;;;;5013164;28;20065;-67
2022/04/03 05:59:22;;;;;;;17.40;7.43;;;-0.30;99.90;;;;;;5008793;28;20419;-67
2022/04/03 06:01:48;;;;;;;20.88;8.13;;;-0.40;99.90;;;;;;5007533;28;20107;-67
2022/04/03 06:04:14;;;;;;;20.77;8.27;;;-0.30;99.90;;;;;;5008623;28;20057;-66
2022/04/03 06:06:40;;;;;;;20.80;8.02;;;-0.20;99.90;;;;;;5013717;28;20077;-67
2022/04/03 06:09:06;;;;;;;20.67;7.80;;;-0.10;99.90;;;;;;5016785;28;20053;-66
2022/04/03 06:11:31;;;;;;;21.45;8.52;;;-0.20;99.90;;;;;;5009288;28;20092;-66
2022/04/03 06:13:57;;;;;;;20.88;8.85;;;-0.10;99.90;;;;;;5007103;28;20366;-66
2022/04/03 06:16:23;;;;;;;23.08;7.90;;;-0.10;99.90;;;;;;5012745;28;20061;-66
2022/04/03 06:18:48;;;;;;;18.38;8.13;;;-0.10;99.90;;;;;;5013036;28;20029;-65
2022/04/03 06:21:14;;;;;;;17.83;7.30;;;0.00;99.90;;;;;;5019821;28;20060;-67
2022/04/03 06:23:40;;;;;;;17.90;8.05;;;0.10;99.90;;;;;;5017060;28;20030;-66
2022/04/03 06:26:06;;;;;;;18.45;8.07;;;0.10;99.90;;;;;;5012735;28;20033;-67
2022/04/03 06:28:31;;;;;;;18.85;7.78;;;0.20;99.90;;;;;;5018598;28;20084;-66
2022/04/03 06:30:57;;;;;;;19.75;7.95;;;0.30;99.90;;;;;;5011462;28;20050;-65
2022/04/03 06:33:25;;;;;;;19.48;7.85;;;0.40;99.90;;;;;;5013072;28;20037;-66
2022/04/03 06:35:51;;;;;;;16.98;8.05;;;0.40;99.90;;;;;;5008076;28;20033;-65
2022/04/03 06:38:17;;;;;;;22.67;8.20;;;0.50;99.90;;;;;;5007967;28;20087;-66
2022/04/03 06:40:55;;;;;;;18.65;8.40;;;0.50;99.90;;;;;;5014987;28;20095;-67
2022/04/03 06:43:23;;;;;;;27.63;11.07;;;0.50;99.90;;;;;;5010721;28;20494;-67
2022/04/03 06:45:50;;;;;;;17.98;7.72;;;0.60;99.90;;;;;;5002233;28;20072;-67
2022/04/03 06:48:16;;;;;;;41.60;17.70;;;0.60;99.90;;;;;;5004564;28;20044;-67
2022/04/03 06:50:42;;;;;;;20.35;7.75;;;0.70;99.90;;;;;;5009724;28;20042;-67
2022/04/03 06:53:09;;;;;;;15.32;6.63;;;0.80;99.90;;;;;;5007294;28;20404;-67
2022/04/03 06:55:34;;;;;;;14.27;6.40;;;0.60;99.90;;;;;;5005783;28;20121;-67
2022/04/03 06:58:01;;;;;;;15.43;5.75;;;0.70;99.90;;;;;;5013148;28;20437;-65
2022/04/03 07:00:27;;;;;;;15.20;6.32;;;0.60;99.90;;;;;;5007403;28;20038;-67
2022/04/03 07:02:53;;;;;;;15.43;6.25;;;0.70;99.90;;;;;;5004612;28;20033;-67
2022/04/03 07:05:20;;;;;;;12.98;6.38;;;0.70;99.90;;;;;;5007316;28;20128;-67
2022/04/03 07:07:45;;;;;;;16.52;6.88;;;0.90;99.90;;;;;;5006259;28;20033;-68
2022/04/03 07:10:11;;;;;;;15.02;6.90;;;1.00;99.90;;;;;;5001560;28;20034;-68
2022/04/03 07:12:38;;;;;;;16.15;6.32;;;1.10;99.90;;;;;;5007874;28;20038;-68
2022/04/03 07:15:05;;;;;;;18.15;6.93;;;1.20;99.90;;;;;;5014810;28;20038;-67
2022/04/03 07:17:30;;;;;;;14.90;6.55;;;1.20;99.90;;;;;;5007421;28;20152;-67
2022/04/03 07:19:56;;;;;;;14.50;6.55;;;1.30;99.90;;;;;;5009261;28;20109;-68
2022/04/03 07:22:22;;;;;;;16.23;5.93;;;1.40;99.90;;;;;;5006745;28;20034;-67
2022/04/03 07:24:48;;;;;;;16.00;7.60;;;1.40;99.90;;;;;;5008449;28;20759;-68
2022/04/03 07:27:13;;;;;;;17.42;7.72;;;1.50;99.90;;;;;;5007385;28;20029;-68
2022/04/03 07:29:39;;;;;;;14.13;6.45;;;1.50;99.90;;;;;;5011563;28;20056;-68
2022/04/03 07:32:05;;;;;;;13.85;6.25;;;1.40;99.90;;;;;;5009588;28;20591;-65
2022/04/03 07:34:31;;;;;;;13.70;5.97;;;1.30;99.90;;;;;;5005177;28;20484;-65
2022/04/03 07:36:57;;;;;;;14.60;6.32;;;1.30;99.90;;;;;;5003883;28;20667;-66
2022/04/03 07:39:26;;;;;;;17.52;6.32;;;1.40;99.90;;;;;;5011769;28;20060;-67
2022/04/03 07:41:52;;;;;;;14.90;5.47;;;1.30;99.90;;;;;;5006785;28;20034;-66
2022/04/03 07:44:18;;;;;;;11.88;5.40;;;1.20;99.90;;;;;;5037382;28;20039;-66
2022/04/03 07:46:44;;;;;;;12.35;4.85;;;1.40;99.90;;;;;;5001557;28;20034;-65
2022/04/03 07:49:10;;;;;;;11.15;5.32;;;1.30;99.90;;;;;;5008237;28;20030;-66
2022/04/03 07:51:36;;;;;;;11.05;4.90;;;1.40;99.90;;;;;;5009949;28;20029;-66
2022/04/03 07:54:02;;;;;;;13.80;5.40;;;1.10;99.90;;;;;;5001252;28;20372;-66
2022/04/03 07:56:29;;;;;;;12.10;5.63;;;1.10;99.90;;;;;;5005896;28;20041;-66
2022/04/03 07:58:55;;;;;;;16.30;6.35;;;1.20;99.90;;;;;;4997304;28;20032;-67
2022/04/03 08:01:21;;;;;;;13.45;5.35;;;1.30;99.90;;;;;;5001904;28;20641;-66
2022/04/03 08:03:47;;;;;;;12.45;5.88;;;1.40;99.90;;;;;;5008752;28;20160;-67
2022/04/03 08:06:12;;;;;;;14.60;5.72;;;1.70;99.90;;;;;;5009621;28;20451;-66
2022/04/03 08:08:39;;;;;;;13.07;5.72;;;1.70;99.90;;;;;;5007819;28;20032;-66
2022/04/03 08:11:05;;;;;;;14.40;6.13;;;1.90;99.90;;;;;;5001109;28;20523;-65
2022/04/03 08:13:30;;;;;;;12.35;5.35;;;2.00;99.90;;;;;;5001639;28;20042;-66
2022/04/03 08:15:56;;;;;;;12.50;5.35;;;2.20;99.90;;;;;;5002849;28;20139;-65
2022/04/03 08:18:22;;;;;;;17.92;6.00;;;2.20;99.90;;;;;;5001246;28;20049;-67
2022/04/03 08:20:48;;;;;;;12.85;6.00;;;2.20;99.90;;;;;;5011975;28;20041;-72
2022/04/03 08:23:13;;;;;;;13.63;5.45;;;2.20;99.90;;;;;;5009098;28;20058;-69
2022/04/03 08:25:39;;;;;;;11.57;5.07;;;2.30;99.90;;;;;;5009332;28;20033;-67
2022/04/03 08:28:07;;;;;;;11.77;5.70;;;2.20;99.90;;;;;;5005096;28;20056;-71
2022/04/03 08:30:37;;;;;;;14.07;6.18;;;2.30;99.90;;;;;;5007144;28;20442;-71
2022/04/03 08:33:05;;;;;;;11.45;5.50;;;2.40;99.90;;;;;;5004902;28;20038;-71
2022/04/03 08:35:31;;;;;;;15.07;6.18;;;2.60;99.90;;;;;;5007751;28;20048;-71
2022/04/03 08:37:58;;;;;;;12.15;4.55;;;2.90;99.90;;;;;;5003259;28;20034;-71
2022/04/03 08:40:25;;;;;;;14.60;4.95;;;3.20;99.90;;;;;;5003243;28;20026;-70
2022/04/03 08:42:53;;;;;;;19.65;6.75;;;3.30;99.90;;;;;;5008022;28;20022;-69
2022/04/03 08:45:21;;;;;;;12.35;5.45;;;3.50;99.90;;;;;;5007521;28;20057;-70
2022/04/03 08:47:48;;;;;;;9.85;3.90;;;3.40;99.90;;;;;;5009469;28;20065;-68
2022/04/03 08:50:15;;;;;;;13.48;6.00;;;3.10;99.90;;;;;;5003726;28;20029;-69
2022/04/03 08:52:52;;;;;;;9.10;4.18;;;3.20;99.90;;;;;;5039598;28;20025;-70
2022/04/03 08:55:19;;;;;;;11.02;4.68;;;3.40;99.90;;;;;;5012627;28;20061;-69
2022/04/03 08:57:45;;;;;;;9.75;4.10;;;3.50;99.90;;;;;;5008355;28;20029;-69
2022/04/03 09:00:13;;;;;;;9.30;3.90;;;3.20;99.90;;;;;;5005409;28;20643;-70
2022/04/03 09:02:39;;;;;;;10.05;4.82;;;3.00;99.90;;;;;;5004035;28;20429;-70
2022/04/03 09:05:06;;;;;;;11.63;4.57;;;2.90;99.90;;;;;;5005768;28;20415;-70
2022/04/03 09:07:31;;;;;;;24.08;8.43;;;2.70;99.90;;;;;;5015118;28;20030;-70
2022/04/03 09:10:00;;;;;;;14.57;5.20;;;2.70;99.90;;;;;;5010285;28;20068;-70
2022/04/03 09:12:29;;;;;;;8.77;4.18;;;2.70;99.90;;;;;;5011208;28;20104;-70
2022/04/03 09:14:55;;;;;;;8.60;4.43;;;2.80;99.90;;;;;;5007675;28;20077;-71
2022/04/03 09:17:34;;;;;;;19.00;5.72;;;3.10;99.90;;;;;;5010137;28;20066;-70
2022/04/03 09:20:08;;;;;;;10.80;5.15;;;3.20;99.90;;;;;;5003754;28;20038;-69
2022/04/03 09:22:36;;;;;;;12.85;5.00;;;3.40;99.90;;;;;;5007720;28;20038;-70
2022/04/03 09:25:08;;;;;;;11.18;4.43;;;3.50;99.90;;;;;;5005019;28;20404;-71
2022/04/03 09:27:34;;;;;;;9.45;4.60;;;3.60;99.90;;;;;;5007729;28;20037;-71
2022/04/03 09:30:07;;;;;;;11.68;4.50;;;3.80;99.90;;;;;;5029526;28;20032;-71
2022/04/03 09:32:34;;;;;;;9.30;4.22;;;3.70;99.90;;;;;;5002887;28;20040;-72
2022/04/03 09:35:00;;;;;;;8.15;4.05;;;3.90;99.90;;;;;;5005039;28;20042;-72
2022/04/03 09:37:26;;;;;;;8.73;4.50;;;4.10;99.90;;;;;;5009856;28;20384;-71
2022/04/03 09:39:53;;;;;;;11.20;4.70;;;4.00;99.90;;;;;;5010842;28;20057;-73
2022/04/03 09:42:19;;;;;;;10.18;4.22;;;4.10;99.90;;;;;;5006098;28;20026;-71
2022/04/03 09:44:46;;;;;;;7.65;3.95;;;3.90;99.90;;;;;;5009733;28;20026;-71
2022/04/03 09:47:16;;;;;;;10.85;4.30;;;4.00;99.90;;;;;;5006471;28;20037;-72
2022/04/03 09:49:52;;;;;;;10.98;3.72;;;4.20;99.90;;;;;;5007814;28;20397;-71
2022/04/03 09:52:38;;;;;;;6.90;3.47;;;4.30;99.90;;;;;;5003662;28;20109;-71
2022/04/03 09:55:15;;;;;;;10.20;3.95;;;4.70;99.90;;;;;;5005200;28;20042;-71
2022/04/03 09:57:42;;;;;;;7.07;3.33;;;4.70;99.90;;;;;;5008282;28;20057;-70
2022/04/03 10:00:09;;;;;;;11.07;3.28;;;4.20;99.90;;;;;;5008873;28;20029;-70
2022/04/03 10:02:35;;;;;;;8.73;3.72;;;4.00;99.90;;;;;;5007494;28;20038;-70
2022/04/03 10:05:01;;;;;;;6.65;3.13;;;4.10;99.90;;;;;;5010268;28;20042;-70
2022/04/03 10:07:30;;;;;;;6.43;3.15;;;4.60;99.90;;;;;;5010745;28;20117;-67
2022/04/03 10:09:56;;;;;;;7.18;3.00;;;4.90;99.90;;;;;;5015985;28;20041;-70
2022/04/03 10:12:23;;;;;;;6.95;3.35;;;4.90;99.90;;;;;;5020214;28;20072;-69
2022/04/03 10:14:52;;;;;;;8.13;3.85;;;4.80;99.90;;;;;;5011944;28;20034;-70
2022/04/03 10:17:19;;;;;;;9.68;4.57;;;4.60;99.90;;;;;;5008768;28;20229;-71
2022/04/03 10:19:46;;;;;;;8.52;3.97;;;4.30;99.90;;;;;;5005912;28;20480;-68
2022/04/03 10:22:33;;;;;;;7.60;3.42;;;4.00;99.90;;;;;;5006791;28;20032;-71
2022/04/03 10:25:05;;;;;;;7.93;3.53;;;3.90;99.90;;;;;;5010200;28;20034;-70
2022/04/03 10:27:37;;;;;;;6.32;2.80;;;4.10;99.90;;;;;;4999680;28;20485;-70
2022/04/03 10:30:06;;;;;;;5.35;2.72;;;4.20;99.90;;;;;;5005634;28;20073;-70
2022/04/03 10:32:34;;;;;;;6.38;3.25;;;4.10;99.90;;;;;;5009648;28;20041;-71
2022/04/03 10:35:11;;;;;;;6.60;3.25;;;3.60;99.90;;;;;;5007186;28;20054;-72
2022/04/03 10:37:40;;;;;;;6.53;3.08;;;3.50;99.90;;;;;;5008132;28;20026;-69
2022/04/03 10:40:07;;;;;;;9.10;3.28;;;3.50;99.90;;;;;;5016619;28;20460;-69
2022/04/03 10:42:37;;;;;;;8.63;3.45;;;3.50;99.90;;;;;;5006547;28;20045;-70
2022/04/03 10:45:12;;;;;;;8.18;3.83;;;3.60;99.90;;;;;;5002373;28;20029;-71
2022/04/03 10:47:42;;;;;;;8.45;3.95;;;3.60;99.90;;;;;;5015792;28;20129;-69
2022/04/03 10:50:09;;;;;;;4.63;2.53;;;3.70;99.90;;;;;;5009612;28;20030;-69
2022/04/03 10:52:38;;;;;;;6.32;3.28;;;3.60;99.90;;;;;;5012432;28;20065;-70
2022/04/03 10:55:15;;;;;;;7.47;2.72;;;4.00;99.90;;;;;;5010963;28;20037;-70
2022/04/03 10:57:43;;;;;;;10.57;3.58;;;4.60;99.90;;;;;;5012293;28;20037;-71
2022/04/03 11:00:12;;;;;;;7.82;2.90;;;4.60;99.90;;;;;;5013867;28;20029;-69
2022/04/03 11:03:00;;;;;;;7.72;2.67;;;5.10;99.90;;;;;;5010231;28;20042;-71
2022/04/03 11:05:26;;;;;;;5.35;2.63;;;5.00;99.90;;;;;;5007334;28;20503;-71
2022/04/03 11:08:01;;;;;;;6.45;2.50;;;4.80;99.90;;;;;;5011161;28;20040;-71
2022/04/03 11:10:48;;;;;;;7.35;2.70;;;5.20;99.90;;;;;;5009005;28;20142;-71
2022/04/03 11:13:17;;;;;;;4.60;2.63;;;5.50;99.90;;;;;;5009574;28;20072;-72
2022/04/03 11:15:46;;;;;;;5.50;2.97;;;5.30;99.90;;;;;;5013787;28;20152;-72
2022/04/03 11:18:35;;;;;;;6.93;2.70;;;5.10;99.90;;;;;;5006885;28;20030;-70
2022/04/03 11:21:26;;;;;;;7.80;2.90;;;5.00;99.90;;;;;;5010148;28;20029;-75
2022/04/03 11:23:54;;;;;;;6.60;2.88;;;4.80;99.90;;;;;;5006773;28;20038;-72
2022/04/03 11:26:22;;;;;;;7.25;3.35;;;4.70;99.90;;;;;;5011577;28;20041;-71
2022/04/03 11:28:48;;;;;;;7.90;3.08;;;4.80;99.90;;;;;;5008267;28;20030;-71
2022/04/03 11:31:14;;;;;;;5.07;2.33;;;5.40;99.90;;;;;;5001747;28;20115;-70
2022/04/03 11:33:40;;;;;;;5.97;2.58;;;5.50;99.90;;;;;;5006026;28;20061;-70
2022/04/03 11:36:17;;;;;;;7.82;2.83;;;5.00;99.90;;;;;;5010876;28;20029;-70
2022/04/03 11:38:51;;;;;;;6.53;2.88;;;4.50;99.90;;;;;;5010482;28;20113;-69
2022/04/03 11:41:18;;;;;;;5.88;2.88;;;4.90;99.90;;;;;;5008737;28;20049;-68
2022/04/03 11:44:02;;;;;;;5.97;2.70;;;5.50;99.90;;;;;;5013405;28;20052;-71
2022/04/03 11:46:29;;;;;;;5.30;2.55;;;5.70;99.90;;;;;;5006530;28;21029;-69
2022/04/03 11:48:55;;;;;;;7.03;3.03;;;5.70;99.90;;;;;;5007824;28;20042;-69
2022/04/03 11:51:22;;;;;;;6.43;3.08;;;5.20;99.90;;;;;;5007474;28;20061;-68
2022/04/03 11:53:59;;;;;;;5.90;2.80;;;4.90;99.90;;;;;;5009133;28;20030;-67
2022/04/03 11:56:28;;;;;;;10.63;3.30;;;5.40;99.90;;;;;;5014258;28;20064;-68
2022/04/03 11:58:56;;;;;;;10.60;4.13;;;5.80;99.90;;;;;;5010125;28;20030;-67
2022/04/03 12:01:30;;;;;;;15.73;8.02;;;5.80;99.90;;;;;;5014311;28;20211;-67
2022/04/03 12:04:12;;;;;;;16.20;7.60;;;6.40;99.90;;;;;;5008090;28;20057;-66
2022/04/03 12:06:42;;;;;;;18.00;7.60;;;6.20;99.90;;;;;;5005081;28;20045;-70
2022/04/03 12:09:09;;;;;;;8.48;2.95;;;6.10;99.90;;;;;;5001610;28;20034;-68
2022/04/03 12:11:36;;;;;;;23.80;10.00;;;5.80;95.70;;;;;;5007453;28;20066;-69
2022/04/03 12:14:04;;;;;;;9.75;4.00;;;6.00;99.90;;;;;;5003601;28;20516;-71
2022/04/03 12:16:31;;;;;;;7.28;3.10;;;6.20;99.90;;;;;;5003315;28;20044;-68
2022/04/03 12:19:02;;;;;;;6.13;2.70;;;6.50;99.90;;;;;;5018442;28;20022;-69
2022/04/03 12:21:44;;;;;;;4.57;2.15;;;6.10;94.90;;;;;;5003876;28;20038;-68
2022/04/03 12:24:14;;;;;;;4.97;2.63;;;6.10;97.00;;;;;;5000752;28;20048;-68
2022/04/03 12:26:52;;;;;;;5.07;2.42;;;6.50;99.90;;;;;;5005667;28;20033;-66
2022/04/03 12:29:18;;;;;;;5.10;2.40;;;6.90;99.90;;;;;;5003165;28;20029;-65
2022/04/03 12:32:02;;;;;;;6.55;2.65;;;7.10;98.00;;;;;;5006183;28;20044;-68
2022/04/03 12:34:30;;;;;;;8.30;4.35;;;7.00;99.90;;;;;;5005373;28;20115;-68
2022/04/03 12:36:58;;;;;;;5.35;2.55;;;7.10;99.90;;;;;;5007260;28;20040;-68
2022/04/03 12:39:35;;;;;;;7.55;3.53;;;7.40;96.00;;;;;;5001965;28;20585;-67
2022/04/03 12:42:29;;;;;;;6.57;3.40;;;7.60;96.90;;;;;;5006582;28;20385;-67
2022/04/03 12:45:11;;;;;;;7.45;3.95;;;7.40;95.20;;;;;;5002555;28;20473;-67
2022/04/03 12:47:39;;;;;;;5.55;2.63;;;7.30;98.60;;;;;;5005458;28;20034;-67